sensor_id;sensor_type;location;lat;lon;timestamp;temperature;humidity
20158;DHT22;10239;56.820;24.416;2022-11-20T00:01:32;-2.00;99.90
20158;DHT22;10239;56.820;24.416;2022-11-20T00:04:00;-1.80;99.90
20158;DHT22;10239;56.820;24.416;2022-11-20T00:06:28;-1.60;99.90
20158;DHT22;10239;56.820;24.416;2022-11-20T00:08:58;-1.50;99.90
20158;DHT22;10239;56.820;24.416;2022-11-20T00:11:28;-1.40;99.90
20158;DHT22;10239;56.820;24.416;2022-11-20T00:13:59;-1.50;99.90
20158;DHT22;10239;56.820;24.416;2022-11-20T00:16:29;-1.40;99.90
20158;DHT22;10239;56.820;24.416;2022-11-20T00:18:58;-1.30;99.90
20158;DHT22;10239;56.820;24.416;2022-11-20T00:21:27;-1.30;99.90
20158;DHT22;10239;56.820;24.416;2022-11-20T00:23:56;-1.20;99.90
20158;DHT22;10239;56.820;24.416;2022-11-20T00:26:26;-1.30;99.90
20158;DHT22;10239;56.820;24.416;2022-11-20T00:28:56;-1.40;99.90
20158;DHT22;10239;56.820;24.416;2022-11-20T00:31:24;-1.50;99.90
20158;DHT22;10239;56.820;24.416;2022-11-20T00:33:52;-1.60;99.90
20158;DHT22;10239;56.820;24.416;2022-11-20T00:36:24;-1.50;99.90
20158;DHT22;10239;56.820;24.416;2022-11-20T00:38:53;-1.60;99.90
20158;DHT22;10239;56.820;24.416;2022-11-20T00:41:21;-1.80;99.90
20158;DHT22;10239;56.820;24.416;2022-11-20T00:43:49;-1.80;99.90
20158;DHT22;10239;56.820;24.416;2022-11-20T00:46:21;-1.90;99.90
20158;DHT22;10239;56.820;24.416;2022-11-20T00:48:49;-1.90;99.90
20158;DHT22;10239;56.820;24.416;2022-11-20T00:51:22;-1.90;99.90
20158;DHT22;10239;56.820;24.416;2022-11-20T00:53:50;-1.80;99.90
20158;DHT22;10239;56.820;24.416;2022-11-20T00:56:19;-1.60;99.90
20158;DHT22;10239;56.820;24.416;2022-11-20T00:58:48;-1.50;99.90
20158;DHT22;10239;56.820;24.416;2022-11-20T01:01:18;-1.50;99.90
20158;DHT22;10239;56.820;24.416;2022-11-20T01:03:48;-1.40;99.90
20158;DHT22;10239;56.820;24.416;2022-11-20T01:06:37;-1.50;99.90
20158;DHT22;10239;56.820;24.416;2022-11-20T01:09:11;-1.60;99.90
20158;DHT22;10239;56.820;24.416;2022-11-20T01:11:43;-1.60;99.90
20158;DHT22;10239;56.820;24.416;2022-11-20T01:14:14;-1.60;99.90
20158;DHT22;10239;56.820;24.416;2022-11-20T01:16:45;-1.60;99.90
20158;DHT22;10239;56.820;24.416;2022-11-20T01:19:15;-1.60;99.90
20158;DHT22;10239;56.820;24.416;2022-11-20T01:21:47;-1.60;99.90
20158;DHT22;10239;56.820;24.416;2022-11-20T01:24:16;-1.80;99.90
20158;DHT22;10239;56.820;24.416;2022-11-20T01:26:46;-1.70;99.90
20158;DHT22;10239;56.820;24.416;2022-11-20T01:29:16;-1.70;99.90
20158;DHT22;10239;56.820;24.416;2022-11-20T01:31:45;-1.70;99.90
20158;DHT22;10239;56.820;24.416;2022-11-20T01:34:15;-1.80;99.90
20158;DHT22;10239;56.820;24.416;2022-11-20T01:36:43;-1.80;99.90
20158;DHT22;10239;56.820;24.416;2022-11-20T01:39:17;-1.70;99.90
20158;DHT22;10239;56.820;24.416;2022-11-20T01:41:47;-1.80;99.90
20158;DHT22;10239;56.820;24.416;2022-11-20T01:44:52;-1.70;99.90
20158;DHT22;10239;56.820;24.416;2022-11-20T01:47:40;-1.70;99.90
20158;DHT22;10239;56.820;24.416;2022-11-20T01:50:17;-1.70;99.90
20158;DHT22;10239;56.820;24.416;2022-11-20T01:52:56;-1.70;99.90
20158;DHT22;10239;56.820;24.416;2022-11-20T01:55:30;-1.60;99.90
20158;DHT22;10239;56.820;24.416;2022-11-20T01:57:59;-1.60;99.90
20158;DHT22;10239;56.820;24.416;2022-11-20T02:00:27;-1.60;99.90
20158;DHT22;10239;56.820;24.416;2022-11-20T02:02:58;-1.50;99.90
20158;DHT22;10239;56.820;24.416;2022-11-20T02:05:38;-1.50;99.90
20158;DHT22;10239;56.820;24.416;2022-11-20T02:08:06;-1.50;99.90
20158;DHT22;10239;56.820;24.416;2022-11-20T02:10:34;-1.50;99.90
20158;DHT22;10239;56.820;24.416;2022-11-20T02:13:03;-1.50;99.90
20158;DHT22;10239;56.820;24.416;2022-11-20T02:15:49;-1.50;99.90
20158;DHT22;10239;56.820;24.416;2022-11-20T02:18:19;-1.40;99.90
20158;DHT22;10239;56.820;24.416;2022-11-20T02:20:49;-1.40;99.90
20158;DHT22;10239;56.820;24.416;2022-11-20T02:23:33;-1.40;99.90
20158;DHT22;10239;56.820;24.416;2022-11-20T02:26:07;-1.40;99.90
20158;DHT22;10239;56.820;24.416;2022-11-20T02:28:36;-1.40;99.90
20158;DHT22;10239;56.820;24.416;2022-11-20T02:31:04;-1.40;99.90
20158;DHT22;10239;56.820;24.416;2022-11-20T02:33:32;-1.30;99.90
20158;DHT22;10239;56.820;24.416;2022-11-20T02:35:59;-1.40;99.90
20158;DHT22;10239;56.820;24.416;2022-11-20T02:38:27;-1.40;99.90
20158;DHT22;10239;56.820;24.416;2022-11-20T02:40:55;-1.50;99.90
20158;DHT22;10239;56.820;24.416;2022-11-20T02:43:23;-1.50;99.90
20158;DHT22;10239;56.820;24.416;2022-11-20T02:45:51;-1.50;99.90
20158;DHT22;10239;56.820;24.416;2022-11-20T02:48:18;-1.50;99.90
20158;DHT22;10239;56.820;24.416;2022-11-20T02:50:46;-1.50;99.90
20158;DHT22;10239;56.820;24.416;2022-11-20T02:53:13;-1.50;99.90
20158;DHT22;10239;56.820;24.416;2022-11-20T02:55:41;-1.60;99.90
20158;DHT22;10239;56.820;24.416;2022-11-20T02:58:09;-1.60;99.90
20158;DHT22;10239;56.820;24.416;2022-11-20T03:00:36;-1.60;99.90
20158;DHT22;10239;56.820;24.416;2022-11-20T03:03:04;-1.60;99.90
20158;DHT22;10239;56.820;24.416;2022-11-20T03:05:32;-1.60;99.90
20158;DHT22;10239;56.820;24.416;2022-11-20T03:07:59;-1.70;99.90
20158;DHT22;10239;56.820;24.416;2022-11-20T03:10:27;-1.70;99.90
20158;DHT22;10239;56.820;24.416;2022-11-20T03:12:55;-1.80;99.90
20158;DHT22;10239;56.820;24.416;2022-11-20T03:15:23;-1.70;99.90
20158;DHT22;10239;56.820;24.416;2022-11-20T03:17:54;-1.70;99.90
20158;DHT22;10239;56.820;24.416;2022-11-20T03:20:23;-1.70;99.90
20158;DHT22;10239;56.820;24.416;2022-11-20T03:22:50;-1.80;99.90
20158;DHT22;10239;56.820;24.416;2022-11-20T03:25:18;-1.70;99.90
20158;DHT22;10239;56.820;24.416;2022-11-20T03:27:46;-1.80;99.90
20158;DHT22;10239;56.820;24.416;2022-11-20T03:30:14;-1.90;99.90
20158;DHT22;10239;56.820;24.416;2022-11-20T03:32:42;-1.90;99.90
20158;DHT22;10239;56.820;24.416;2022-11-20T03:35:10;-1.90;99.90
20158;DHT22;10239;56.820;24.416;2022-11-20T03:37:37;-1.80;99.90
20158;DHT22;10239;56.820;24.416;2022-11-20T03:40:05;-1.80;99.90
20158;DHT22;10239;56.820;24.416;2022-11-20T03:42:33;-1.80;99.90
20158;DHT22;10239;56.820;24.416;2022-11-20T03:45:17;-1.90;99.90
20158;DHT22;10239;56.820;24.416;2022-11-20T03:47:45;-1.90;99.90
20158;DHT22;10239;56.820;24.416;2022-11-20T03:50:13;-1.90;99.90
20158;DHT22;10239;56.820;24.416;2022-11-20T03:52:41;-1.90;99.90
20158;DHT22;10239;56.820;24.416;2022-11-20T03:55:09;-1.90;99.90
20158;DHT22;10239;56.820;24.416;2022-11-20T03:57:36;-2.00;99.90
20158;DHT22;10239;56.820;24.416;2022-11-20T04:00:04;-1.90;99.90
20158;DHT22;10239;56.820;24.416;2022-11-20T04:02:37;-1.80;99.90
20158;DHT22;10239;56.820;24.416;2022-11-20T04:05:10;-1.90;99.90
20158;DHT22;10239;56.820;24.416;2022-11-20T04:07:42;-1.90;99.90
20158;DHT22;10239;56.820;24.416;2022-11-20T04:10:11;-2.00;99.90
20158;DHT22;10239;56.820;24.416;2022-11-20T04:12:41;-2.10;99.90
20158;DHT22;10239;56.820;24.416;2022-11-20T04:15:09;-2.10;99.90
20158;DHT22;10239;56.820;24.416;2022-11-20T04:17:40;-2.20;99.90
20158;DHT22;10239;56.820;24.416;2022-11-20T04:20:08;-2.30;99.90
20158;DHT22;10239;56.820;24.416;2022-11-20T04:22:39;-2.40;99.90
20158;DHT22;10239;56.820;24.416;2022-11-20T04:25:14;-2.50;99.90
20158;DHT22;10239;56.820;24.416;2022-11-20T04:27:44;-2.60;99.90
20158;DHT22;10239;56.820;24.416;2022-11-20T04:30:14;-2.60;99.90
20158;DHT22;10239;56.820;24.416;2022-11-20T04:32:42;-2.80;99.90
20158;DHT22;10239;56.820;24.416;2022-11-20T04:35:09;-2.80;99.90
20158;DHT22;10239;56.820;24.416;2022-11-20T04:37:36;-3.00;99.90
20158;DHT22;10239;56.820;24.416;2022-11-20T04:40:04;-3.00;99.90
20158;DHT22;10239;56.820;24.416;2022-11-20T04:42:32;-2.80;99.90
20158;DHT22;10239;56.820;24.416;2022-11-20T04:44:59;-2.80;99.90
20158;DHT22;10239;56.820;24.416;2022-11-20T04:47:27;-2.80;99.90
20158;DHT22;10239;56.820;24.416;2022-11-20T04:49:54;-2.90;99.90
20158;DHT22;10239;56.820;24.416;2022-11-20T04:52:22;-2.80;99.90
20158;DHT22;10239;56.820;24.416;2022-11-20T04:54:49;-2.80;99.90
20158;DHT22;10239;56.820;24.416;2022-11-20T04:57:19;-2.90;99.90
20158;DHT22;10239;56.820;24.416;2022-11-20T04:59:47;-2.90;99.90
20158;DHT22;10239;56.820;24.416;2022-11-20T05:02:14;-2.80;99.90
20158;DHT22;10239;56.820;24.416;2022-11-20T05:04:42;-2.80;99.90
20158;DHT22;10239;56.820;24.416;2022-11-20T05:07:09;-2.90;99.90
20158;DHT22;10239;56.820;24.416;2022-11-20T05:09:36;-3.10;99.90
20158;DHT22;10239;56.820;24.416;2022-11-20T05:12:04;-3.00;99.90
20158;DHT22;10239;56.820;24.416;2022-11-20T05:14:31;-3.00;99.90
20158;DHT22;10239;56.820;24.416;2022-11-20T05:16:59;-3.10;99.90
20158;DHT22;10239;56.820;24.416;2022-11-20T05:19:29;-3.00;99.90
20158;DHT22;10239;56.820;24.416;2022-11-20T05:21:56;-3.00;99.90
20158;DHT22;10239;56.820;24.416;2022-11-20T05:24:24;-3.20;99.90
20158;DHT22;10239;56.820;24.416;2022-11-20T05:26:51;-3.20;99.90
20158;DHT22;10239;56.820;24.416;2022-11-20T05:29:19;-3.10;99.90
20158;DHT22;10239;56.820;24.416;2022-11-20T05:31:47;-3.10;99.90
20158;DHT22;10239;56.820;24.416;2022-11-20T05:34:14;-3.30;99.90
20158;DHT22;10239;56.820;24.416;2022-11-20T05:36:42;-3.40;99.90
20158;DHT22;10239;56.820;24.416;2022-11-20T05:39:09;-3.20;99.90
20158;DHT22;10239;56.820;24.416;2022-11-20T05:41:36;-3.20;99.90
20158;DHT22;10239;56.820;24.416;2022-11-20T05:44:04;-3.30;99.90
20158;DHT22;10239;56.820;24.416;2022-11-20T05:46:32;-3.40;99.90
20158;DHT22;10239;56.820;24.416;2022-11-20T05:48:59;-3.50;99.90
20158;DHT22;10239;56.820;24.416;2022-11-20T05:51:27;-3.50;99.90
20158;DHT22;10239;56.820;24.416;2022-11-20T05:53:58;-3.50;99.90
20158;DHT22;10239;56.820;24.416;2022-11-20T05:56:26;-3.70;99.90
20158;DHT22;10239;56.820;24.416;2022-11-20T05:58:53;-3.70;99.90
20158;DHT22;10239;56.820;24.416;2022-11-20T06:01:23;-3.70;99.90
20158;DHT22;10239;56.820;24.416;2022-11-20T06:03:53;-3.70;99.90
20158;DHT22;10239;56.820;24.416;2022-11-20T06:06:20;-3.70;99.90
20158;DHT22;10239;56.820;24.416;2022-11-20T06:08:48;-3.50;99.90
20158;DHT22;10239;56.820;24.416;2022-11-20T06:11:16;-3.60;99.90
20158;DHT22;10239;56.820;24.416;2022-11-20T06:13:44;-3.60;99.90
20158;DHT22;10239;56.820;24.416;2022-11-20T06:16:14;-3.50;99.90
20158;DHT22;10239;56.820;24.416;2022-11-20T06:18:42;-3.40;99.90
20158;DHT22;10239;56.820;24.416;2022-11-20T06:21:16;-3.30;99.90
20158;DHT22;10239;56.820;24.416;2022-11-20T06:23:44;-3.40;99.90
20158;DHT22;10239;56.820;24.416;2022-11-20T06:26:23;-3.40;99.90
20158;DHT22;10239;56.820;24.416;2022-11-20T06:28:52;-3.30;99.90
20158;DHT22;10239;56.820;24.416;2022-11-20T06:31:22;-3.50;99.90
20158;DHT22;10239;56.820;24.416;2022-11-20T06:33:50;-3.50;99.90
20158;DHT22;10239;56.820;24.416;2022-11-20T06:36:20;-3.40;99.90
20158;DHT22;10239;56.820;24.416;2022-11-20T06:38:48;-3.30;99.90
20158;DHT22;10239;56.820;24.416;2022-11-20T06:41:19;-3.20;99.90
20158;DHT22;10239;56.820;24.416;2022-11-20T06:43:48;-3.00;99.90
20158;DHT22;10239;56.820;24.416;2022-11-20T06:46:17;-3.10;99.90
20158;DHT22;10239;56.820;24.416;2022-11-20T06:48:46;-3.10;99.90
20158;DHT22;10239;56.820;24.416;2022-11-20T06:51:14;-3.10;99.90
20158;DHT22;10239;56.820;24.416;2022-11-20T06:53:41;-3.00;99.90
20158;DHT22;10239;56.820;24.416;2022-11-20T06:56:09;-2.50;99.90
20158;DHT22;10239;56.820;24.416;2022-11-20T06:58:37;-2.10;99.90
20158;DHT22;10239;56.820;24.416;2022-11-20T07:01:07;-1.90;99.90
20158;DHT22;10239;56.820;24.416;2022-11-20T07:03:36;-1.80;99.90
20158;DHT22;10239;56.820;24.416;2022-11-20T07:06:04;-1.10;99.90
20158;DHT22;10239;56.820;24.416;2022-11-20T07:08:32;-0.80;99.90
20158;DHT22;10239;56.820;24.416;2022-11-20T07:11:01;0.00;99.90
20158;DHT22;10239;56.820;24.416;2022-11-20T07:13:29;0.50;99.90
20158;DHT22;10239;56.820;24.416;2022-11-20T07:16:02;1.00;99.90
20158;DHT22;10239;56.820;24.416;2022-11-20T07:18:30;-0.10;99.90
20158;DHT22;10239;56.820;24.416;2022-11-20T07:21:06;-0.30;99.90
20158;DHT22;10239;56.820;24.416;2022-11-20T07:23:34;-0.30;99.90
20158;DHT22;10239;56.820;24.416;2022-11-20T07:26:09;-0.10;99.90
20158;DHT22;10239;56.820;24.416;2022-11-20T07:28:36;1.20;99.90
20158;DHT22;10239;56.820;24.416;2022-11-20T07:31:04;1.70;99.90
20158;DHT22;10239;56.820;24.416;2022-11-20T07:33:33;2.10;99.90
20158;DHT22;10239;56.820;24.416;2022-11-20T07:36:01;2.30;99.90
20158;DHT22;10239;56.820;24.416;2022-11-20T07:38:29;2.40;99.90
20158;DHT22;10239;56.820;24.416;2022-11-20T07:40:57;2.70;99.90
20158;DHT22;10239;56.820;24.416;2022-11-20T07:43:25;3.10;99.90
20158;DHT22;10239;56.820;24.416;2022-11-20T07:45:57;2.30;99.90
20158;DHT22;10239;56.820;24.416;2022-11-20T07:48:25;2.20;99.90
20158;DHT22;10239;56.820;24.416;2022-11-20T07:50:56;2.90;99.90
20158;DHT22;10239;56.820;24.416;2022-11-20T07:53:24;3.30;99.90
20158;DHT22;10239;56.820;24.416;2022-11-20T07:55:52;3.20;99.90
20158;DHT22;10239;56.820;24.416;2022-11-20T07:58:20;3.10;99.90
20158;DHT22;10239;56.820;24.416;2022-11-20T08:00:48;2.40;99.90
20158;DHT22;10239;56.820;24.416;2022-11-20T08:03:16;1.90;99.90
20158;DHT22;10239;56.820;24.416;2022-11-20T08:05:50;1.60;99.90
20158;DHT22;10239;56.820;24.416;2022-11-20T08:08:18;1.70;99.90
20158;DHT22;10239;56.820;24.416;2022-11-20T08:10:46;2.40;99.90
20158;DHT22;10239;56.820;24.416;2022-11-20T08:13:13;2.80;99.90
20158;DHT22;10239;56.820;24.416;2022-11-20T08:15:59;2.80;99.90
20158;DHT22;10239;56.820;24.416;2022-11-20T08:18:27;3.20;99.90
20158;DHT22;10239;56.820;24.416;2022-11-20T08:21:04;4.00;99.90
20158;DHT22;10239;56.820;24.416;2022-11-20T08:23:32;3.50;99.90
20158;DHT22;10239;56.820;24.416;2022-11-20T08:25:59;3.50;99.90
20158;DHT22;10239;56.820;24.416;2022-11-20T08:28:27;2.90;99.90
20158;DHT22;10239;56.820;24.416;2022-11-20T08:31:02;3.30;99.90
20158;DHT22;10239;56.820;24.416;2022-11-20T08:33:31;3.40;99.90
20158;DHT22;10239;56.820;24.416;2022-11-20T08:36:03;3.70;99.90
20158;DHT22;10239;56.820;24.416;2022-11-20T08:38:32;3.40;99.90
20158;DHT22;10239;56.820;24.416;2022-11-20T08:41:01;3.30;99.90
20158;DHT22;10239;56.820;24.416;2022-11-20T08:43:59;3.80;99.90
20158;DHT22;10239;56.820;24.416;2022-11-20T08:46:35;3.10;99.90
20158;DHT22;10239;56.820;24.416;2022-11-20T08:49:05;3.20;99.90
20158;DHT22;10239;56.820;24.416;2022-11-20T08:51:33;2.70;99.90
20158;DHT22;10239;56.820;24.416;2022-11-20T08:54:02;2.10;99.90
20158;DHT22;10239;56.820;24.416;2022-11-20T08:56:29;1.90;99.90
20158;DHT22;10239;56.820;24.416;2022-11-20T08:58:57;2.30;99.90
20158;DHT22;10239;56.820;24.416;2022-11-20T09:01:47;2.10;99.90
20158;DHT22;10239;56.820;24.416;2022-11-20T09:04:14;1.70;99.90
20158;DHT22;10239;56.820;24.416;2022-11-20T09:06:47;1.80;99.90
20158;DHT22;10239;56.820;24.416;2022-11-20T09:09:18;1.50;99.90
20158;DHT22;10239;56.820;24.416;2022-11-20T09:11:46;1.10;99.90
20158;DHT22;10239;56.820;24.416;2022-11-20T09:14:14;1.00;99.90
20158;DHT22;10239;56.820;24.416;2022-11-20T09:16:41;0.70;99.90
20158;DHT22;10239;56.820;24.416;2022-11-20T09:19:09;0.90;99.90
20158;DHT22;10239;56.820;24.416;2022-11-20T09:21:57;1.20;99.90
20158;DHT22;10239;56.820;24.416;2022-11-20T09:24:27;1.00;99.90
20158;DHT22;10239;56.820;24.416;2022-11-20T09:26:55;1.10;99.90
20158;DHT22;10239;56.820;24.416;2022-11-20T09:29:22;1.70;99.90
20158;DHT22;10239;56.820;24.416;2022-11-20T09:31:50;1.60;99.90
20158;DHT22;10239;56.820;24.416;2022-11-20T09:34:18;1.80;99.90
20158;DHT22;10239;56.820;24.416;2022-11-20T09:36:46;1.30;99.90
20158;DHT22;10239;56.820;24.416;2022-11-20T09:39:14;0.70;99.90
20158;DHT22;10239;56.820;24.416;2022-11-20T09:47:07;1.10;99.90
20158;DHT22;10239;56.820;24.416;2022-11-20T09:55:12;0.30;99.90
20158;DHT22;10239;56.820;24.416;2022-11-20T09:57:44;0.30;99.90
20158;DHT22;10239;56.820;24.416;2022-11-20T10:00:14;0.30;99.90
20158;DHT22;10239;56.820;24.416;2022-11-20T10:03:17;0.00;99.90
20158;DHT22;10239;56.820;24.416;2022-11-20T10:05:50;0.70;99.90
20158;DHT22;10239;56.820;24.416;2022-11-20T10:08:24;-0.30;99.90
20158;DHT22;10239;56.820;24.416;2022-11-20T10:14:38;0.20;99.90
20158;DHT22;10239;56.820;24.416;2022-11-20T10:26:30;-0.70;99.90
20158;DHT22;10239;56.820;24.416;2022-11-20T10:32:00;-0.50;99.90
20158;DHT22;10239;56.820;24.416;2022-11-20T10:34:38;-0.80;99.90
20158;DHT22;10239;56.820;24.416;2022-11-20T10:37:16;-0.80;99.90
20158;DHT22;10239;56.820;24.416;2022-11-20T10:42:36;-0.30;99.90
20158;DHT22;10239;56.820;24.416;2022-11-20T10:50:37;-0.20;99.90
20158;DHT22;10239;56.820;24.416;2022-11-20T10:56:27;0.20;99.90
20158;DHT22;10239;56.820;24.416;2022-11-20T11:01:47;0.30;99.90
20158;DHT22;10239;56.820;24.416;2022-11-20T11:04:37;-0.20;99.90
20158;DHT22;10239;56.820;24.416;2022-11-20T11:09:46;-0.30;99.90
20158;DHT22;10239;56.820;24.416;2022-11-20T11:12:14;-0.40;99.90
20158;DHT22;10239;56.820;24.416;2022-11-20T11:14:44;-0.90;99.90
20158;DHT22;10239;56.820;24.416;2022-11-20T11:20:02;-0.60;99.90
20158;DHT22;10239;56.820;24.416;2022-11-20T11:22:34;-1.30;99.90
20158;DHT22;10239;56.820;24.416;2022-11-20T11:25:21;-1.30;99.90
20158;DHT22;10239;56.820;24.416;2022-11-20T11:27:50;-1.40;99.90
20158;DHT22;10239;56.820;24.416;2022-11-20T11:30:19;-1.20;99.90
20158;DHT22;10239;56.820;24.416;2022-11-20T11:32:49;-1.80;99.90
20158;DHT22;10239;56.820;24.416;2022-11-20T11:35:27;-1.80;99.90
20158;DHT22;10239;56.820;24.416;2022-11-20T11:38:04;-1.50;99.90
20158;DHT22;10239;56.820;24.416;2022-11-20T11:40:35;-1.50;99.90
20158;DHT22;10239;56.820;24.416;2022-11-20T11:43:22;-1.50;99.90
20158;DHT22;10239;56.820;24.416;2022-11-20T11:46:33;-1.20;99.90
20158;DHT22;10239;56.820;24.416;2022-11-20T11:49:19;-1.70;99.90
20158;DHT22;10239;56.820;24.416;2022-11-20T11:54:53;-1.00;99.90
20158;DHT22;10239;56.820;24.416;2022-11-20T12:00:16;-1.20;99.90
20158;DHT22;10239;56.820;24.416;2022-11-20T12:05:20;-2.00;99.90
20158;DHT22;10239;56.820;24.416;2022-11-20T12:07:55;-2.20;99.90
20158;DHT22;10239;56.820;24.416;2022-11-20T12:10:48;-2.50;99.90
20158;DHT22;10239;56.820;24.416;2022-11-20T12:16:04;-2.30;99.90
20158;DHT22;10239;56.820;24.416;2022-11-20T12:18:33;-2.40;99.90
20158;DHT22;10239;56.820;24.416;2022-11-20T12:21:11;-2.80;99.90
20158;DHT22;10239;56.820;24.416;2022-11-20T12:24:05;-2.60;99.90
20158;DHT22;10239;56.820;24.416;2022-11-20T12:29:55;-2.80;99.90
20158;DHT22;10239;56.820;24.416;2022-11-20T12:33:06;-2.80;99.90
20158;DHT22;10239;56.820;24.416;2022-11-20T12:36:00;-2.80;99.90
20158;DHT22;10239;56.820;24.416;2022-11-20T12:38:57;-2.70;99.90
20158;DHT22;10239;56.820;24.416;2022-11-20T13:02:37;-3.70;99.90
20158;DHT22;10239;56.820;24.416;2022-11-20T13:05:21;-3.70;99.90
20158;DHT22;10239;56.820;24.416;2022-11-20T13:07:53;-3.50;99.90
20158;DHT22;10239;56.820;24.416;2022-11-20T13:13:17;-3.40;99.90
20158;DHT22;10239;56.820;24.416;2022-11-20T13:18:22;-3.60;99.90
20158;DHT22;10239;56.820;24.416;2022-11-20T13:20:50;-3.70;99.90
20158;DHT22;10239;56.820;24.416;2022-11-20T13:23:26;-3.80;99.90
20158;DHT22;10239;56.820;24.416;2022-11-20T13:26:22;-3.60;99.90
20158;DHT22;10239;56.820;24.416;2022-11-20T13:29:24;-3.60;99.90
20158;DHT22;10239;56.820;24.416;2022-11-20T13:32:17;-3.60;99.90
20158;DHT22;10239;56.820;24.416;2022-11-20T13:35:01;-3.30;99.90
20158;DHT22;10239;56.820;24.416;2022-11-20T13:37:35;-3.50;99.90
20158;DHT22;10239;56.820;24.416;2022-11-20T13:42:37;-3.60;99.90
20158;DHT22;10239;56.820;24.416;2022-11-20T13:45:32;-3.70;99.90
20158;DHT22;10239;56.820;24.416;2022-11-20T13:48:18;-3.70;99.90
20158;DHT22;10239;56.820;24.416;2022-11-20T13:50:58;-3.70;99.90
20158;DHT22;10239;56.820;24.416;2022-11-20T13:56:52;-3.50;99.90
20158;DHT22;10239;56.820;24.416;2022-11-20T14:02:02;-3.50;99.90
20158;DHT22;10239;56.820;24.416;2022-11-20T14:04:33;-3.50;99.90
20158;DHT22;10239;56.820;24.416;2022-11-20T14:07:05;-3.30;99.90
20158;DHT22;10239;56.820;24.416;2022-11-20T14:09:34;-3.40;99.90
20158;DHT22;10239;56.820;24.416;2022-11-20T14:12:02;-3.50;99.90
20158;DHT22;10239;56.820;24.416;2022-11-20T14:14:33;-3.20;99.90
20158;DHT22;10239;56.820;24.416;2022-11-20T14:17:15;-3.50;99.90
20158;DHT22;10239;56.820;24.416;2022-11-20T14:19:46;-3.50;99.90
20158;DHT22;10239;56.820;24.416;2022-11-20T14:22:21;-3.60;99.90
20158;DHT22;10239;56.820;24.416;2022-11-20T14:25:00;-3.60;99.90
20158;DHT22;10239;56.820;24.416;2022-11-20T14:27:29;-3.50;99.90
20158;DHT22;10239;56.820;24.416;2022-11-20T14:29:56;-3.60;99.90
20158;DHT22;10239;56.820;24.416;2022-11-20T14:32:29;-3.70;99.90
20158;DHT22;10239;56.820;24.416;2022-11-20T14:35:10;-3.20;99.90
20158;DHT22;10239;56.820;24.416;2022-11-20T14:37:41;-3.30;99.90
20158;DHT22;10239;56.820;24.416;2022-11-20T14:40:24;-3.20;99.90
20158;DHT22;10239;56.820;24.416;2022-11-20T14:42:52;-3.20;99.90
20158;DHT22;10239;56.820;24.416;2022-11-20T14:45:21;-3.40;99.90
20158;DHT22;10239;56.820;24.416;2022-11-20T14:47:50;-3.50;99.90
20158;DHT22;10239;56.820;24.416;2022-11-20T14:53:01;-3.60;99.90
20158;DHT22;10239;56.820;24.416;2022-11-20T14:55:42;-3.60;99.90
20158;DHT22;10239;56.820;24.416;2022-11-20T14:58:24;-3.30;99.90
20158;DHT22;10239;56.820;24.416;2022-11-20T15:01:01;-3.60;99.90
20158;DHT22;10239;56.820;24.416;2022-11-20T15:03:40;-3.40;99.90
20158;DHT22;10239;56.820;24.416;2022-11-20T15:06:11;-3.70;99.90
20158;DHT22;10239;56.820;24.416;2022-11-20T15:08:51;-3.60;99.90
20158;DHT22;10239;56.820;24.416;2022-11-20T15:11:23;-3.60;99.90
20158;DHT22;10239;56.820;24.416;2022-11-20T15:13:53;-3.90;99.90
20158;DHT22;10239;56.820;24.416;2022-11-20T15:16:22;-4.00;99.90
20158;DHT22;10239;56.820;24.416;2022-11-20T15:18:51;-4.10;99.90
20158;DHT22;10239;56.820;24.416;2022-11-20T15:21:19;-3.90;99.90
20158;DHT22;10239;56.820;24.416;2022-11-20T15:23:51;-4.00;99.90
20158;DHT22;10239;56.820;24.416;2022-11-20T15:26:25;-4.10;99.90
20158;DHT22;10239;56.820;24.416;2022-11-20T15:28:54;-4.10;99.90
20158;DHT22;10239;56.820;24.416;2022-11-20T15:31:23;-4.20;99.90
20158;DHT22;10239;56.820;24.416;2022-11-20T15:33:51;-3.90;99.90
20158;DHT22;10239;56.820;24.416;2022-11-20T15:36:19;-3.80;99.90
20158;DHT22;10239;56.820;24.416;2022-11-20T15:38:46;-3.80;99.90
20158;DHT22;10239;56.820;24.416;2022-11-20T15:41:14;-3.60;99.90
20158;DHT22;10239;56.820;24.416;2022-11-20T15:43:42;-3.60;99.90
20158;DHT22;10239;56.820;24.416;2022-11-20T15:46:13;-3.60;99.90
20158;DHT22;10239;56.820;24.416;2022-11-20T15:48:43;-3.50;99.90
20158;DHT22;10239;56.820;24.416;2022-11-20T15:51:29;-3.80;99.90
20158;DHT22;10239;56.820;24.416;2022-11-20T15:53:57;-3.90;99.90
20158;DHT22;10239;56.820;24.416;2022-11-20T15:56:25;-3.80;99.90
20158;DHT22;10239;56.820;24.416;2022-11-20T15:58:53;-3.60;99.90
20158;DHT22;10239;56.820;24.416;2022-11-20T16:01:22;-3.60;99.90
20158;DHT22;10239;56.820;24.416;2022-11-20T16:03:49;-3.50;99.90
20158;DHT22;10239;56.820;24.416;2022-11-20T16:06:16;-3.60;99.90
20158;DHT22;10239;56.820;24.416;2022-11-20T16:08:44;-3.90;99.90
20158;DHT22;10239;56.820;24.416;2022-11-20T16:11:13;-3.60;99.90
20158;DHT22;10239;56.820;24.416;2022-11-20T16:13:41;-3.80;99.90
20158;DHT22;10239;56.820;24.416;2022-11-20T16:16:33;-4.00;99.90
20158;DHT22;10239;56.820;24.416;2022-11-20T16:19:01;-4.10;99.90
20158;DHT22;10239;56.820;24.416;2022-11-20T16:21:28;-4.10;99.90
20158;DHT22;10239;56.820;24.416;2022-11-20T16:24:00;-3.90;99.90
20158;DHT22;10239;56.820;24.416;2022-11-20T16:26:28;-3.80;99.90
20158;DHT22;10239;56.820;24.416;2022-11-20T16:28:56;-3.80;99.90
20158;DHT22;10239;56.820;24.416;2022-11-20T16:31:23;-4.00;99.90
20158;DHT22;10239;56.820;24.416;2022-11-20T16:33:52;-3.90;99.90
20158;DHT22;10239;56.820;24.416;2022-11-20T16:36:21;-4.00;99.90
20158;DHT22;10239;56.820;24.416;2022-11-20T16:38:57;-4.20;99.90
20158;DHT22;10239;56.820;24.416;2022-11-20T16:41:27;-3.80;99.90
20158;DHT22;10239;56.820;24.416;2022-11-20T16:43:56;-3.90;99.90
20158;DHT22;10239;56.820;24.416;2022-11-20T16:46:31;-4.10;99.90
20158;DHT22;10239;56.820;24.416;2022-11-20T16:49:06;-4.00;99.90
20158;DHT22;10239;56.820;24.416;2022-11-20T16:51:37;-3.70;99.90
20158;DHT22;10239;56.820;24.416;2022-11-20T16:54:06;-3.90;99.90
20158;DHT22;10239;56.820;24.416;2022-11-20T16:56:34;-3.70;99.90
20158;DHT22;10239;56.820;24.416;2022-11-20T16:59:02;-3.70;99.90
20158;DHT22;10239;56.820;24.416;2022-11-20T17:01:30;-4.00;99.90
20158;DHT22;10239;56.820;24.416;2022-11-20T17:04:05;-3.70;99.90
20158;DHT22;10239;56.820;24.416;2022-11-20T17:06:35;-3.80;99.90
20158;DHT22;10239;56.820;24.416;2022-11-20T17:09:04;-3.80;99.90
20158;DHT22;10239;56.820;24.416;2022-11-20T17:11:31;-3.60;99.90
20158;DHT22;10239;56.820;24.416;2022-11-20T17:14:00;-3.80;99.90
20158;DHT22;10239;56.820;24.416;2022-11-20T17:16:29;-3.70;99.90
20158;DHT22;10239;56.820;24.416;2022-11-20T17:18:58;-3.50;99.90
20158;DHT22;10239;56.820;24.416;2022-11-20T17:21:30;-3.70;99.90
20158;DHT22;10239;56.820;24.416;2022-11-20T17:24:02;-3.50;99.90